Time;durP1;ratioP1;P1;durP2;ratioP2;P2;SDS_P1;SDS_P2;PMS_P1;PMS_P2;Temp;Humidity;BMP_temperature;BMP_pressure;BME280_temperature;BME280_humidity;BME280_pressure;Samples;Min_cycle;Max_cycle;Signal;HPM_P1;HPM_P2
2021/04/26 00:02:00;;;;;;;7.45;5.43;;;6.70;89.30;;;;;;4993378;28;20211;-78
2021/04/26 00:04:27;;;;;;;6.15;5.47;;;6.60;89.50;;;;;;4978247;28;20295;-82
2021/04/26 00:06:54;;;;;;;6.18;5.05;;;6.60;89.70;;;;;;4983869;28;20223;-78
2021/04/26 00:09:20;;;;;;;8.32;5.78;;;6.60;89.80;;;;;;4982880;28;20215;-79
2021/04/26 00:11:47;;;;;;;6.10;5.55;;;6.60;89.80;;;;;;4985814;28;20202;-78
2021/04/26 00:14:13;;;;;;;6.40;5.55;;;6.50;89.90;;;;;;4985639;28;20240;-81
2021/04/26 00:16:40;;;;;;;8.73;5.93;;;6.50;90.00;;;;;;4988307;28;20203;-78
2021/04/26 00:19:07;;;;;;;10.55;5.30;;;6.50;90.00;;;;;;4978975;28;20330;-79
2021/04/26 00:21:33;;;;;;;6.25;5.65;;;6.50;90.10;;;;;;4984214;28;20200;-81
2021/04/26 00:24:00;;;;;;;6.60;5.70;;;6.50;90.20;;;;;;4978801;28;20210;-79
2021/04/26 00:26:26;;;;;;;7.65;5.30;;;6.40;90.10;;;;;;4980049;28;20206;-81
2021/04/26 00:28:53;;;;;;;8.80;5.53;;;6.40;90.10;;;;;;4987264;28;20216;-79
2021/04/26 00:31:20;;;;;;;7.47;6.70;;;6.30;90.10;;;;;;4985804;28;20439;-79
2021/04/26 00:33:46;;;;;;;5.93;5.40;;;6.30;90.10;;;;;;4978432;28;20228;-79
2021/04/26 00:36:14;;;;;;;9.50;5.88;;;6.30;90.10;;;;;;4972951;28;20209;-80
2021/04/26 00:38:40;;;;;;;7.72;6.10;;;6.20;90.10;;;;;;4982049;28;20302;-77
2021/04/26 00:41:07;;;;;;;7.05;5.80;;;6.20;90.10;;;;;;4980527;28;20199;-77
2021/04/26 00:43:34;;;;;;;6.45;5.72;;;6.20;90.10;;;;;;4979010;28;20261;-77
2021/04/26 00:46:00;;;;;;;6.30;5.70;;;6.20;90.20;;;;;;4981742;28;20211;-78
2021/04/26 00:48:26;;;;;;;5.63;5.13;;;6.20;90.20;;;;;;4983807;28;20605;-78
2021/04/26 00:50:53;;;;;;;9.23;5.45;;;6.10;90.30;;;;;;4976231;28;20211;-80
2021/04/26 00:53:21;;;;;;;7.03;6.07;;;6.10;90.70;;;;;;4978296;28;20233;-79
2021/04/26 00:55:48;;;;;;;7.68;5.88;;;6.10;90.40;;;;;;4986569;28;20206;-77
2021/04/26 00:58:15;;;;;;;5.82;5.32;;;6.00;90.40;;;;;;4982076;28;20345;-77
2021/04/26 01:00:41;;;;;;;6.13;5.50;;;6.00;90.50;;;;;;4988158;28;20214;-76
2021/04/26 01:03:08;;;;;;;11.73;5.85;;;6.00;90.60;;;;;;4985157;28;20201;-77
2021/04/26 01:05:35;;;;;;;6.85;6.25;;;6.00;90.70;;;;;;4985239;28;20228;-77
2021/04/26 01:08:02;;;;;;;7.00;6.30;;;5.90;90.80;;;;;;4983998;28;20401;-77
2021/04/26 01:10:33;;;;;;;6.65;6.15;;;5.90;90.70;;;;;;4976101;28;20198;-77
2021/04/26 01:13:10;;;;;;;5.60;5.18;;;5.90;90.70;;;;;;4983497;28;20222;-76
2021/04/26 01:15:46;;;;;;;16.02;6.20;;;5.90;90.70;;;;;;4981206;28;20209;-78
2021/04/26 01:18:17;;;;;;;6.55;5.95;;;5.90;90.60;;;;;;4981341;28;20203;-77
2021/04/26 01:21:30;;;;;;;6.25;5.43;;;5.90;90.60;;;;;;4981881;28;20240;-78
2021/04/26 01:24:37;;;;;;;13.27;5.63;;;5.80;90.60;;;;;;4982225;28;20207;-80
2021/04/26 01:27:11;;;;;;;6.30;5.80;;;5.80;90.70;;;;;;4977874;28;20684;-79
2021/04/26 01:29:56;;;;;;;6.40;5.45;;;5.70;90.60;;;;;;4976280;28;20222;-76
2021/04/26 01:32:35;;;;;;;9.52;5.90;;;5.70;90.60;;;;;;4979582;28;20218;-76
2021/04/26 01:35:05;;;;;;;7.30;6.72;;;5.70;90.70;;;;;;4980852;28;20275;-77
2021/04/26 01:37:34;;;;;;;7.40;5.80;;;5.60;90.70;;;;;;4983714;28;20206;-77
2021/04/26 01:40:01;;;;;;;5.75;5.18;;;5.60;90.70;;;;;;4978903;28;20602;-77
2021/04/26 01:42:29;;;;;;;6.18;5.15;;;5.60;90.70;;;;;;4976838;28;20203;-77
2021/04/26 01:44:59;;;;;;;6.07;5.55;;;5.60;90.70;;;;;;4984349;28;20199;-77
2021/04/26 01:47:26;;;;;;;6.65;5.93;;;5.50;90.60;;;;;;4984503;28;20195;-77
2021/04/26 01:49:54;;;;;;;8.25;5.43;;;5.50;90.60;;;;;;4982502;28;20296;-80
2021/04/26 01:52:21;;;;;;;8.98;5.45;;;5.50;90.50;;;;;;4980840;28;20210;-77
2021/04/26 01:54:48;;;;;;;8.57;5.25;;;5.50;90.60;;;;;;4983806;28;20663;-78
2021/04/26 01:57:15;;;;;;;9.90;5.30;;;5.40;90.50;;;;;;4977339;28;20199;-76
2021/04/26 01:59:41;;;;;;;6.70;5.55;;;5.40;90.60;;;;;;4976611;28;20324;-76
2021/04/26 02:02:08;;;;;;;5.43;4.93;;;5.30;90.50;;;;;;4985421;28;20213;-77
2021/04/26 02:04:37;;;;;;;6.25;5.35;;;5.30;90.50;;;;;;4985418;28;20201;-77
2021/04/26 02:07:05;;;;;;;5.50;4.93;;;5.30;90.40;;;;;;4982013;28;20225;-77
2021/04/26 02:09:38;;;;;;;5.63;5.15;;;5.30;90.40;;;;;;4982457;28;20293;-79
2021/04/26 02:12:06;;;;;;;6.07;5.60;;;5.20;90.40;;;;;;4985478;28;20569;-77
2021/04/26 02:14:34;;;;;;;6.07;5.50;;;5.30;90.50;;;;;;4981000;28;20329;-78
2021/04/26 02:17:02;;;;;;;5.65;5.15;;;5.20;90.60;;;;;;4985286;28;20198;-77
2021/04/26 02:19:29;;;;;;;6.63;5.97;;;5.20;90.60;;;;;;4988429;28;20682;-76
2021/04/26 02:21:55;;;;;;;6.82;5.57;;;5.20;90.60;;;;;;4982203;28;20210;-77
2021/04/26 02:24:22;;;;;;;8.70;7.07;;;5.20;90.60;;;;;;4985170;28;20208;-76
2021/04/26 02:26:49;;;;;;;5.95;5.35;;;5.20;90.60;;;;;;4989386;28;20797;-77
2021/04/26 02:29:15;;;;;;;6.30;5.68;;;5.20;90.60;;;;;;4988391;28;20199;-77
2021/04/26 02:31:45;;;;;;;7.63;5.85;;;5.10;90.50;;;;;;4984046;28;20198;-76
2021/04/26 02:34:15;;;;;;;7.50;6.82;;;5.20;90.60;;;;;;4980041;28;20735;-77
2021/04/26 02:36:47;;;;;;;7.70;5.32;;;5.20;90.70;;;;;;4983058;28;20211;-77
2021/04/26 02:39:15;;;;;;;6.20;5.60;;;5.10;90.70;;;;;;4985058;28;20968;-77
2021/04/26 02:41:45;;;;;;;6.13;5.63;;;5.10;90.60;;;;;;4985814;28;20202;-77
2021/04/26 02:44:17;;;;;;;8.57;6.80;;;5.10;90.60;;;;;;4989347;28;20212;-80
2021/04/26 02:46:44;;;;;;;8.65;6.72;;;5.10;90.70;;;;;;4984017;28;20206;-77
2021/04/26 02:49:11;;;;;;;7.82;6.18;;;5.10;90.70;;;;;;4988962;28;20251;-77
2021/04/26 02:51:39;;;;;;;9.05;5.90;;;5.10;90.80;;;;;;4979968;28;20575;-77
2021/04/26 02:54:07;;;;;;;6.32;5.82;;;5.10;90.80;;;;;;4990473;28;20234;-77
2021/04/26 02:56:40;;;;;;;6.88;6.30;;;5.00;90.80;;;;;;4989223;28;20203;-77
2021/04/26 02:59:09;;;;;;;18.05;7.07;;;5.00;90.80;;;;;;4984585;28;20259;-76
2021/04/26 03:01:37;;;;;;;8.35;6.53;;;5.00;90.90;;;;;;4985232;28;20220;-77
2021/04/26 03:04:04;;;;;;;6.43;5.82;;;5.00;90.80;;;;;;4982682;28;20205;-78
2021/04/26 03:06:32;;;;;;;8.18;6.25;;;5.00;90.80;;;;;;4984207;28;20218;-79
2021/04/26 03:09:00;;;;;;;7.30;6.70;;;5.00;91.00;;;;;;4987133;28;20264;-77
2021/04/26 03:11:27;;;;;;;10.20;7.78;;;5.00;90.90;;;;;;4986669;28;20285;-77
2021/04/26 03:13:55;;;;;;;8.90;7.65;;;5.00;91.20;;;;;;4983994;28;20222;-77
2021/04/26 03:16:23;;;;;;;9.02;8.07;;;5.00;91.30;;;;;;4985586;28;20297;-77
2021/04/26 03:18:50;;;;;;;12.95;8.32;;;5.10;91.40;;;;;;4978696;28;20214;-77
2021/04/26 03:21:17;;;;;;;8.43;7.45;;;5.20;91.60;;;;;;4983788;28;20761;-78
2021/04/26 03:23:44;;;;;;;10.70;6.85;;;5.20;91.60;;;;;;4984417;28;20199;-78
2021/04/26 03:26:11;;;;;;;12.63;7.70;;;5.30;91.80;;;;;;4983614;28;20212;-77
2021/04/26 03:28:41;;;;;;;11.68;7.40;;;5.30;92.00;;;;;;4986480;28;20234;-79
2021/04/26 03:31:08;;;;;;;13.60;7.40;;;5.40;91.90;;;;;;4988181;28;20199;-77
2021/04/26 03:33:36;;;;;;;11.75;7.82;;;5.40;91.90;;;;;;4983303;28;20231;-77
2021/04/26 03:36:05;;;;;;;13.57;8.32;;;5.50;91.90;;;;;;4983397;28;20207;-77
2021/04/26 03:38:32;;;;;;;7.18;6.53;;;5.50;92.10;;;;;;4989616;28;20210;-78
2021/04/26 03:40:59;;;;;;;11.70;7.45;;;5.50;92.10;;;;;;4984137;28;20735;-77
2021/04/26 03:43:26;;;;;;;14.23;7.95;;;5.60;92.10;;;;;;4982573;28;20206;-75
2021/04/26 03:45:55;;;;;;;8.63;7.75;;;5.60;92.20;;;;;;4982146;28;20212;-77
2021/04/26 03:48:22;;;;;;;8.60;7.82;;;5.60;92.00;;;;;;4986103;28;20202;-77
2021/04/26 03:50:49;;;;;;;13.68;7.70;;;5.60;92.00;;;;;;4977644;28;20206;-77
2021/04/26 03:53:15;;;;;;;9.90;8.05;;;5.70;92.10;;;;;;4976973;28;20285;-77
2021/04/26 03:55:42;;;;;;;8.18;7.32;;;5.70;92.00;;;;;;4986416;28;20205;-79
2021/04/26 03:58:08;;;;;;;8.80;7.38;;;5.70;92.00;;;;;;4981954;28;20240;-78
2021/04/26 04:00:35;;;;;;;15.63;7.50;;;5.70;92.00;;;;;;4988892;28;20580;-77
2021/04/26 04:03:05;;;;;;;12.98;8.20;;;5.70;91.90;;;;;;4984653;28;20321;-76
2021/04/26 04:05:31;;;;;;;8.40;7.60;;;5.80;91.80;;;;;;4986985;28;20220;-77
2021/04/26 04:07:59;;;;;;;13.35;7.65;;;5.80;91.80;;;;;;4982067;28;21081;-76
2021/04/26 04:10:25;;;;;;;7.10;6.13;;;5.80;91.80;;;;;;4980193;28;20285;-77
2021/04/26 04:12:52;;;;;;;8.30;7.47;;;5.90;91.80;;;;;;4979190;28;20256;-77
2021/04/26 04:15:18;;;;;;;9.43;7.43;;;5.90;92.10;;;;;;4978446;28;20232;-77
2021/04/26 04:17:45;;;;;;;8.23;7.35;;;5.90;92.00;;;;;;4983411;28;20261;-78
2021/04/26 04:20:12;;;;;;;12.60;8.38;;;5.90;91.60;;;;;;4983493;28;20250;-77
2021/04/26 04:22:40;;;;;;;10.60;7.95;;;5.90;91.60;;;;;;4982402;28;20335;-77
2021/04/26 04:25:09;;;;;;;9.73;7.40;;;5.80;91.50;;;;;;4980402;28;20361;-77
2021/04/26 04:27:37;;;;;;;10.07;7.57;;;5.80;91.50;;;;;;4978267;28;20242;-76
2021/04/26 04:30:06;;;;;;;8.35;7.55;;;5.70;91.40;;;;;;4980988;28;20691;-77
2021/04/26 04:32:32;;;;;;;8.23;7.35;;;5.70;91.40;;;;;;4990595;28;20734;-77
2021/04/26 04:34:59;;;;;;;11.30;7.82;;;5.70;91.40;;;;;;4985805;28;20223;-80
2021/04/26 04:37:25;;;;;;;14.05;8.25;;;5.70;91.40;;;;;;4983116;28;20207;-80
2021/04/26 04:39:52;;;;;;;11.27;8.43;;;5.70;91.40;;;;;;4984310;28;20194;-76
2021/04/26 04:42:19;;;;;;;10.50;8.45;;;5.70;91.60;;;;;;4979315;28;20207;-79
2021/04/26 04:44:45;;;;;;;11.40;8.30;;;5.70;91.60;;;;;;4983426;28;20610;-76
2021/04/26 04:47:11;;;;;;;10.38;8.70;;;5.70;91.60;;;;;;4984694;28;20202;-77
2021/04/26 04:49:38;;;;;;;9.52;8.15;;;5.80;91.70;;;;;;4981351;28;20235;-77
2021/04/26 04:52:05;;;;;;;16.05;8.48;;;5.80;91.80;;;;;;4978533;28;20252;-77
2021/04/26 04:54:31;;;;;;;13.60;8.30;;;5.80;91.80;;;;;;4980007;28;20638;-77
2021/04/26 04:56:58;;;;;;;12.63;9.65;;;5.90;91.90;;;;;;4978391;28;20234;-77
2021/04/26 04:59:25;;;;;;;9.23;7.63;;;5.80;92.30;;;;;;4983852;28;20536;-77
2021/04/26 05:01:52;;;;;;;9.52;8.05;;;5.90;91.90;;;;;;4984082;28;20206;-77
2021/04/26 05:04:18;;;;;;;9.18;7.63;;;5.90;91.80;;;;;;4985989;28;20606;-77
2021/04/26 05:06:44;;;;;;;14.18;9.13;;;5.90;91.90;;;;;;4978070;28;20238;-77
2021/04/26 05:09:11;;;;;;;16.45;9.52;;;6.00;92.30;;;;;;4981056;28;20500;-76
2021/04/26 05:11:37;;;;;;;13.45;7.38;;;6.00;91.90;;;;;;4979498;28;20207;-77
2021/04/26 05:14:04;;;;;;;13.82;7.47;;;6.00;92.20;;;;;;4984705;28;20582;-76
2021/04/26 05:16:32;;;;;;;9.65;7.28;;;6.00;91.90;;;;;;4984691;28;20281;-79
2021/04/26 05:19:00;;;;;;;16.30;9.20;;;6.10;91.90;;;;;;4982066;28;20228;-77
2021/04/26 05:21:27;;;;;;;8.93;8.05;;;6.10;91.90;;;;;;4977472;28;20231;-77
2021/04/26 05:23:55;;;;;;;10.63;7.97;;;6.10;91.90;;;;;;4977549;28;20229;-77
2021/04/26 05:26:22;;;;;;;18.13;8.57;;;6.10;91.90;;;;;;4984627;28;20246;-77
2021/04/26 05:28:48;;;;;;;12.27;8.32;;;6.10;92.00;;;;;;4990039;28;20207;-77
2021/04/26 05:31:15;;;;;;;12.95;8.48;;;6.20;92.00;;;;;;4986403;28;20209;-76
2021/04/26 05:33:42;;;;;;;10.98;8.63;;;6.20;91.90;;;;;;4980819;28;20285;-77
2021/04/26 05:36:08;;;;;;;12.13;7.70;;;6.30;91.90;;;;;;4979008;28;20199;-77
2021/04/26 05:38:35;;;;;;;10.70;7.53;;;6.30;91.80;;;;;;4978387;28;20222;-77
2021/04/26 05:41:01;;;;;;;12.48;8.07;;;6.30;91.80;;;;;;4978680;28;20306;-77
2021/04/26 05:43:27;;;;;;;12.93;9.30;;;6.40;92.20;;;;;;4981698;28;20682;-77
2021/04/26 05:45:54;;;;;;;9.05;7.90;;;6.40;91.90;;;;;;4984019;28;20217;-78
2021/04/26 05:48:20;;;;;;;18.17;8.10;;;6.50;91.90;;;;;;4979546;28;20208;-77
2021/04/26 05:50:48;;;;;;;10.90;8.18;;;6.50;91.90;;;;;;4982116;28;20208;-78
2021/04/26 05:53:14;;;;;;;14.52;8.93;;;6.60;91.90;;;;;;4983201;28;20222;-77
2021/04/26 05:55:41;;;;;;;11.38;8.45;;;6.60;91.90;;;;;;4985323;28;20215;-79
2021/04/26 05:58:07;;;;;;;11.60;8.02;;;6.70;92.00;;;;;;4978440;28;20296;-77
2021/04/26 06:00:33;;;;;;;9.35;8.45;;;6.70;91.90;;;;;;4987663;28;20212;-77
2021/04/26 06:03:00;;;;;;;11.55;8.68;;;6.80;92.10;;;;;;4975117;28;20217;-77
2021/04/26 06:05:26;;;;;;;14.40;8.00;;;6.80;92.00;;;;;;4985052;28;20222;-77
2021/04/26 06:07:53;;;;;;;10.70;8.70;;;6.90;92.10;;;;;;4986957;28;20206;-79
2021/04/26 06:10:20;;;;;;;9.93;8.93;;;7.00;92.20;;;;;;4983665;28;20260;-77
2021/04/26 06:12:47;;;;;;;15.30;7.88;;;7.10;92.10;;;;;;4977889;28;20215;-77
2021/04/26 06:15:13;;;;;;;13.20;9.25;;;7.10;92.10;;;;;;4981302;28;20258;-79
2021/04/26 06:17:39;;;;;;;18.05;8.65;;;7.20;92.00;;;;;;4983631;28;20234;-80
2021/04/26 06:20:07;;;;;;;11.13;8.43;;;7.20;92.00;;;;;;4985103;28;20231;-78
2021/04/26 06:22:33;;;;;;;13.20;8.25;;;7.30;92.00;;;;;;4985547;28;20675;-77
2021/04/26 06:25:01;;;;;;;11.07;7.95;;;7.40;92.00;;;;;;4985224;28;20553;-78
2021/04/26 06:27:27;;;;;;;12.32;8.10;;;7.50;92.10;;;;;;4979427;28;20257;-78
2021/04/26 06:29:53;;;;;;;9.07;8.13;;;7.60;92.10;;;;;;4979070;28;20204;-78
2021/04/26 06:32:22;;;;;;;8.23;7.43;;;7.60;92.10;;;;;;4982882;28;20199;-78
2021/04/26 06:34:48;;;;;;;9.77;8.20;;;7.70;92.20;;;;;;4978033;28;20259;-78
2021/04/26 06:37:15;;;;;;;12.30;7.43;;;7.80;92.20;;;;;;4985105;28;20254;-78
2021/04/26 06:39:41;;;;;;;10.38;7.75;;;7.90;92.10;;;;;;4975220;28;20203;-79
2021/04/26 06:42:08;;;;;;;12.07;7.55;;;8.00;92.00;;;;;;4977669;28;20215;-78
2021/04/26 06:44:35;;;;;;;19.65;9.95;;;8.10;92.00;;;;;;4977730;28;20220;-78
2021/04/26 06:47:01;;;;;;;9.95;7.30;;;8.20;91.90;;;;;;4982224;28;20203;-77
2021/04/26 06:49:28;;;;;;;9.73;7.95;;;8.30;91.80;;;;;;4981733;28;20746;-77
2021/04/26 06:51:54;;;;;;;9.05;6.72;;;8.40;91.70;;;;;;4990482;28;20286;-81
2021/04/26 06:54:20;;;;;;;7.30;6.57;;;8.50;91.60;;;;;;4986682;28;20237;-78
2021/04/26 06:56:47;;;;;;;8.98;6.45;;;8.60;91.50;;;;;;4979614;28;20196;-78
2021/04/26 06:59:14;;;;;;;7.15;6.40;;;8.60;91.30;;;;;;4983076;28;20241;-81
2021/04/26 07:01:41;;;;;;;7.90;7.00;;;8.70;91.10;;;;;;4987879;28;20199;-77
2021/04/26 07:04:08;;;;;;;7.78;6.97;;;8.80;90.50;;;;;;4986512;28;20915;-76
2021/04/26 07:06:35;;;;;;;10.65;7.32;;;8.80;90.50;;;;;;4981648;28;22204;-77
2021/04/26 07:09:02;;;;;;;14.35;7.28;;;8.90;90.50;;;;;;4983335;28;21119;-79
2021/04/26 07:11:28;;;;;;;8.88;7.22;;;8.90;90.40;;;;;;4981973;28;20359;-81
2021/04/26 07:13:55;;;;;;;7.03;6.32;;;9.00;90.30;;;;;;4985437;28;20222;-76
2021/04/26 07:16:23;;;;;;;8.43;6.40;;;9.10;90.30;;;;;;4983609;28;20193;-76
2021/04/26 07:18:49;;;;;;;11.07;5.85;;;9.10;90.20;;;;;;4985523;28;20786;-79
2021/04/26 07:21:16;;;;;;;6.00;5.47;;;9.20;90.00;;;;;;4984967;28;20206;-76
2021/04/26 07:23:42;;;;;;;6.30;5.70;;;9.30;90.00;;;;;;4981615;28;20520;-78
2021/04/26 07:26:09;;;;;;;9.80;6.88;;;9.40;89.80;;;;;;4984644;28;20549;-81
2021/04/26 07:28:35;;;;;;;10.30;6.70;;;9.40;89.30;;;;;;4978895;28;20207;-76
2021/04/26 07:31:01;;;;;;;20.02;6.03;;;9.50;89.10;;;;;;4983237;28;20286;-79
2021/04/26 07:33:29;;;;;;;6.65;5.70;;;9.60;88.90;;;;;;4987419;28;20224;-81
2021/04/26 07:35:55;;;;;;;7.10;6.38;;;9.70;88.70;;;;;;4986007;28;20209;-81
2021/04/26 07:38:22;;;;;;;10.25;6.43;;;9.80;88.60;;;;;;4981911;28;20207;-78
2021/04/26 07:40:48;;;;;;;15.80;6.68;;;9.80;88.50;;;;;;4983450;28;20694;-77
2021/04/26 07:43:15;;;;;;;9.35;6.40;;;9.90;87.50;;;;;;4984047;28;20200;-79
2021/04/26 07:45:41;;;;;;;6.55;5.72;;;10.00;86.60;;;;;;4987001;28;20200;-77
2021/04/26 07:48:08;;;;;;;7.47;5.75;;;10.00;86.50;;;;;;4984150;28;20230;-77
2021/04/26 07:50:35;;;;;;;8.15;6.18;;;10.10;86.30;;;;;;4983475;28;20197;-81
2021/04/26 07:53:02;;;;;;;9.40;5.60;;;10.20;83.10;;;;;;4983430;28;20623;-77
2021/04/26 07:55:28;;;;;;;5.45;4.95;;;10.20;83.80;;;;;;4982247;28;20211;-77
2021/04/26 07:57:55;;;;;;;8.75;5.75;;;10.30;81.70;;;;;;4987031;28;20201;-78
2021/04/26 08:00:22;;;;;;;8.15;5.20;;;10.30;82.50;;;;;;4980897;28;20286;-77
2021/04/26 08:02:48;;;;;;;4.45;3.90;;;10.40;81.80;;;;;;4980500;28;20205;-78
2021/04/26 08:05:15;;;;;;;5.95;4.47;;;10.50;77.90;;;;;;4980239;28;20296;-79
2021/04/26 08:07:42;;;;;;;9.55;4.10;;;10.50;79.40;;;;;;4979471;28;20696;-79
2021/04/26 08:10:10;;;;;;;9.77;4.15;;;10.60;79.60;;;;;;4983998;28;20212;-80
2021/04/26 08:12:37;;;;;;;9.65;5.03;;;10.60;79.10;;;;;;4982218;28;20205;-77
2021/04/26 08:15:04;;;;;;;10.10;4.28;;;10.70;78.50;;;;;;4978858;28;20236;-79
2021/04/26 08:17:30;;;;;;;12.18;4.70;;;10.80;77.10;;;;;;4978740;28;20220;-77
2021/04/26 08:19:57;;;;;;;5.65;3.92;;;10.90;77.00;;;;;;4979096;28;20240;-79
2021/04/26 08:22:24;;;;;;;10.73;4.15;;;11.00;77.70;;;;;;4979351;28;20213;-77
2021/04/26 08:24:51;;;;;;;5.15;3.95;;;11.00;76.60;;;;;;4984432;28;20203;-77
2021/04/26 08:27:18;;;;;;;8.35;4.05;;;11.10;76.00;;;;;;4981912;28;20201;-77
2021/04/26 08:29:44;;;;;;;4.45;4.03;;;11.20;76.00;;;;;;4978615;28;20264;-77
2021/04/26 08:32:11;;;;;;;12.85;4.10;;;11.40;76.70;;;;;;4987535;28;20197;-77
2021/04/26 08:34:38;;;;;;;3.13;2.80;;;11.60;75.90;;;;;;4985099;28;20291;-82
2021/04/26 08:37:04;;;;;;;5.05;3.53;;;11.70;76.10;;;;;;4984473;28;20580;-77
2021/04/26 08:39:31;;;;;;;10.65;3.20;;;11.90;75.50;;;;;;4982413;28;20201;-77
2021/04/26 08:41:58;;;;;;;8.10;2.92;;;12.00;75.00;;;;;;4978842;28;20211;-78
2021/04/26 08:44:25;;;;;;;6.18;2.80;;;12.20;71.40;;;;;;4982766;28;20200;-77
2021/04/26 08:46:52;;;;;;;3.20;2.92;;;12.30;71.30;;;;;;4983575;28;20210;-77
2021/04/26 08:49:20;;;;;;;5.20;2.80;;;12.40;71.00;;;;;;4983049;28;20238;-77
2021/04/26 08:51:47;;;;;;;7.20;3.55;;;12.60;70.10;;;;;;4980624;28;20454;-76
2021/04/26 08:54:14;;;;;;;3.75;2.97;;;12.60;69.90;;;;;;4981747;28;20215;-77
2021/04/26 08:56:40;;;;;;;5.80;3.20;;;12.70;69.60;;;;;;4978615;28;20631;-78
2021/04/26 08:59:08;;;;;;;3.47;3.10;;;12.80;69.10;;;;;;4985442;28;20199;-77
2021/04/26 09:01:34;;;;;;;4.77;3.13;;;12.90;68.40;;;;;;4983003;28;20550;-77
2021/04/26 09:04:05;;;;;;;4.30;2.85;;;13.00;68.20;;;;;;4977986;28;21044;-78
2021/04/26 09:06:50;;;;;;;7.38;3.03;;;13.00;67.60;;;;;;4981599;28;20219;-80
2021/04/26 09:09:33;;;;;;;5.43;2.97;;;13.20;68.10;;;;;;4977520;28;20199;-78
2021/04/26 09:11:59;;;;;;;4.10;2.70;;;13.20;68.40;;;;;;4977792;28;20493;-77
2021/04/26 09:14:36;;;;;;;4.10;2.80;;;13.30;68.80;;;;;;4983138;28;20494;-81
2021/04/26 09:17:34;;;;;;;3.40;3.10;;;13.30;68.70;;;;;;4974507;28;20203;-80
2021/04/26 09:20:20;;;;;;;3.10;2.90;;;13.40;68.80;;;;;;4973445;28;20242;-77
2021/04/26 09:22:48;;;;;;;3.17;2.97;;;13.30;64.70;;;;;;4976350;28;20470;-79
2021/04/26 09:25:32;;;;;;;4.70;3.40;;;13.40;66.60;;;;;;4981460;28;20481;-77
2021/04/26 09:28:05;;;;;;;5.60;3.17;;;13.50;66.50;;;;;;4982201;28;20473;-77
2021/04/26 09:30:52;;;;;;;3.63;2.70;;;13.60;67.80;;;;;;4976789;28;20458;-77
2021/04/26 09:33:29;;;;;;;4.40;3.17;;;13.60;67.60;;;;;;4974775;28;20503;-80
2021/04/26 09:36:14;;;;;;;4.00;2.63;;;13.70;67.10;;;;;;4978861;28;21240;-77
2021/04/26 09:38:44;;;;;;;4.40;2.83;;;13.80;66.30;;;;;;4981105;28;20471;-77
2021/04/26 09:41:20;;;;;;;5.83;3.00;;;13.80;65.60;;;;;;4980446;28;20460;-78
2021/04/26 09:43:49;;;;;;;2.93;2.53;;;13.80;65.00;;;;;;4976986;28;20467;-80
2021/04/26 09:46:17;;;;;;;2.83;2.57;;;13.90;64.70;;;;;;4983952;28;20459;-77
2021/04/26 09:48:44;;;;;;;2.67;2.47;;;13.90;62.30;;;;;;4978233;28;20885;-77
2021/04/26 09:51:17;;;;;;;5.40;2.80;;;14.00;63.30;;;;;;4980014;28;20467;-79
2021/04/26 09:53:52;;;;;;;2.60;2.10;;;14.10;63.50;;;;;;4979725;28;20589;-78
2021/04/26 09:56:20;;;;;;;5.20;2.30;;;14.20;63.80;;;;;;4976284;28;20556;-79
2021/04/26 09:58:48;;;;;;;17.63;9.07;;;14.30;63.50;;;;;;4978895;28;20488;-77
2021/04/26 10:01:16;;;;;;;11.17;7.00;;;14.40;63.70;;;;;;4982079;28;20520;-79
2021/04/26 10:03:43;;;;;;;4.00;3.10;;;14.50;62.50;;;;;;4980354;28;20478;-78
2021/04/26 10:06:09;;;;;;;2.40;2.20;;;14.50;63.30;;;;;;4981353;28;20547;-77
2021/04/26 10:08:37;;;;;;;2.90;2.37;;;14.60;63.20;;;;;;4979469;28;21045;-81
2021/04/26 10:11:04;;;;;;;3.03;2.83;;;14.70;61.80;;;;;;4978226;28;20463;-78
2021/04/26 10:13:32;;;;;;;4.70;3.50;;;14.70;59.10;;;;;;4981043;28;20461;-77
2021/04/26 10:16:00;;;;;;;3.87;2.50;;;14.60;57.60;;;;;;4976632;28;20475;-81
2021/04/26 10:18:35;;;;;;;2.50;2.40;;;14.70;58.40;;;;;;4979111;28;20469;-79
2021/04/26 10:21:03;;;;;;;5.57;2.90;;;14.70;58.50;;;;;;4980260;28;20468;-78
2021/04/26 10:23:42;;;;;;;2.90;2.70;;;14.70;59.40;;;;;;4977230;28;21010;-82
2021/04/26 10:26:09;;;;;;;5.83;3.10;;;14.80;58.30;;;;;;4982465;28;20896;-77
2021/04/26 10:28:37;;;;;;;3.50;2.83;;;14.80;58.50;;;;;;4982769;28;20471;-77
2021/04/26 10:31:07;;;;;;;4.17;3.47;;;14.90;58.40;;;;;;4983062;28;20466;-77
2021/04/26 10:34:06;;;;;;;9.63;4.03;;;14.90;58.00;;;;;;4985037;28;20542;-77
2021/04/26 10:36:44;;;;;;;6.00;5.50;;;14.90;57.20;;;;;;4983852;28;20551;-78
2021/04/26 10:39:12;;;;;;;3.73;3.43;;;15.00;58.60;;;;;;4983984;28;20960;-77
2021/04/26 10:42:04;;;;;;;3.17;2.90;;;15.00;57.10;;;;;;4983414;28;20548;-77
2021/04/26 10:44:51;;;;;;;3.90;2.80;;;15.10;58.40;;;;;;4983402;28;20561;-78
2021/04/26 10:47:21;;;;;;;3.37;2.43;;;15.20;58.00;;;;;;4985060;28;20842;-81
2021/04/26 10:49:49;;;;;;;3.17;2.87;;;15.10;56.80;;;;;;4980821;28;20468;-77
2021/04/26 10:52:33;;;;;;;3.90;2.47;;;15.10;56.60;;;;;;4977736;28;20490;-80
2021/04/26 10:55:02;;;;;;;5.80;3.10;;;15.10;57.10;;;;;;4980957;28;20491;-80
2021/04/26 10:57:32;;;;;;;6.87;2.50;;;15.20;57.50;;;;;;4985148;28;20475;-77
2021/04/26 11:00:37;;;;;;;8.43;5.80;;;15.20;58.60;;;;;;4979802;28;20902;-77
2021/04/26 11:03:36;;;;;;;4.83;4.10;;;15.30;58.70;;;;;;4982733;28;20468;-82
2021/04/26 11:06:25;;;;;;;3.17;2.87;;;15.30;58.70;;;;;;4977346;28;20494;-77
2021/04/26 11:09:04;;;;;;;3.53;3.30;;;15.30;56.40;;;;;;4980967;28;20463;-77
2021/04/26 11:11:36;;;;;;;3.80;3.37;;;15.30;58.10;;;;;;4983900;28;20468;-78
2021/04/26 11:14:03;;;;;;;3.57;3.27;;;15.40;59.00;;;;;;4979719;28;20578;-77
2021/04/26 11:16:32;;;;;;;4.70;3.43;;;15.50;59.70;;;;;;4984036;28;20500;-79
2021/04/26 11:19:06;;;;;;;3.27;2.97;;;15.50;58.80;;;;;;4979751;28;20908;-78
2021/04/26 11:22:04;;;;;;;3.97;2.90;;;15.50;58.30;;;;;;4981695;28;20463;-77
2021/04/26 11:25:03;;;;;;;5.23;3.50;;;15.50;58.30;;;;;;4985348;28;20463;-78
2021/04/26 11:27:33;;;;;;;4.03;3.60;;;15.50;56.80;;;;;;4982409;28;20469;-80
2021/04/26 11:30:18;;;;;;;3.70;3.30;;;15.50;56.50;;;;;;4983771;28;20463;-82
2021/04/26 11:33:19;;;;;;;3.70;3.00;;;15.50;57.80;;;;;;4978312;28;20471;-78
2021/04/26 11:36:13;;;;;;;6.40;3.10;;;15.60;57.20;;;;;;4978953;28;21359;-78
2021/04/26 11:38:43;;;;;;;4.23;3.00;;;15.70;57.80;;;;;;4966849;28;20473;-77
2021/04/26 11:41:09;;;;;;;3.60;3.30;;;15.70;57.00;;;;;;4983248;28;20493;-81
2021/04/26 11:43:53;;;;;;;8.30;4.90;;;15.60;56.70;;;;;;4987162;28;20495;-77
2021/04/26 11:46:26;;;;;;;4.90;3.63;;;15.60;57.20;;;;;;4982726;28;20549;-78
2021/04/26 11:49:10;;;;;;;3.63;3.33;;;15.60;56.30;;;;;;4982548;28;20473;-79
2021/04/26 11:51:37;;;;;;;4.60;2.90;;;15.70;57.90;;;;;;4981331;28;20495;-78
2021/04/26 11:54:12;;;;;;;4.90;4.10;;;15.60;56.80;;;;;;4982112;28;20535;-79
2021/04/26 11:56:39;;;;;;;11.20;3.40;;;15.60;55.40;;;;;;4978309;28;20959;-82
2021/04/26 11:59:06;;;;;;;3.17;2.97;;;15.60;55.70;;;;;;4978358;28;20508;-77
2021/04/26 12:01:33;;;;;;;5.13;4.13;;;15.60;55.60;;;;;;4972371;28;20578;-80
2021/04/26 12:04:00;;;;;;;5.10;3.60;;;15.60;55.60;;;;;;4973192;28;20458;-77
2021/04/26 12:06:27;;;;;;;4.83;3.30;;;15.60;55.10;;;;;;4980235;28;20496;-78
2021/04/26 12:08:54;;;;;;;4.97;3.40;;;15.60;55.40;;;;;;4977179;28;20477;-81
2021/04/26 12:11:23;;;;;;;4.87;3.90;;;15.70;56.30;;;;;;4983774;28;20469;-78
2021/04/26 12:14:11;;;;;;;4.73;4.33;;;15.60;54.80;;;;;;4981400;28;20944;-78
2021/04/26 12:16:37;;;;;;;4.57;4.03;;;15.60;55.60;;;;;;4983040;28;20474;-78
2021/04/26 12:19:05;;;;;;;5.80;3.50;;;15.60;56.50;;;;;;4979994;28;20595;-77
2021/04/26 12:21:33;;;;;;;4.43;4.03;;;15.70;56.80;;;;;;4979764;28;20480;-78
2021/04/26 12:24:00;;;;;;;3.73;3.43;;;15.70;56.30;;;;;;4979672;28;20470;-78
2021/04/26 12:26:27;;;;;;;3.43;3.13;;;15.70;55.20;;;;;;4978405;28;20472;-78
2021/04/26 12:28:54;;;;;;;5.60;4.20;;;15.70;56.00;;;;;;4977291;28;20559;-78
2021/04/26 12:31:22;;;;;;;5.90;3.80;;;15.70;56.80;;;;;;4976005;28;21028;-81
2021/04/26 12:33:49;;;;;;;4.07;3.40;;;15.70;56.30;;;;;;4977347;28;20505;-81
2021/04/26 12:36:16;;;;;;;4.60;4.20;;;15.70;56.50;;;;;;4979263;28;20457;-78
2021/04/26 12:38:49;;;;;;;4.23;3.83;;;15.70;55.20;;;;;;4981218;28;20473;-81
2021/04/26 12:41:18;;;;;;;5.20;4.10;;;15.70;56.10;;;;;;4978083;28;20528;-80
2021/04/26 12:43:52;;;;;;;4.90;4.00;;;15.70;56.70;;;;;;4977418;28;20468;-81
2021/04/26 12:46:18;;;;;;;8.07;3.53;;;15.80;57.10;;;;;;4977263;28;21103;-78
2021/04/26 12:48:45;;;;;;;8.43;4.30;;;15.90;56.80;;;;;;4980309;28;20468;-79
2021/04/26 12:51:12;;;;;;;6.17;4.47;;;15.90;57.00;;;;;;4981478;28;20548;-78
2021/04/26 12:53:40;;;;;;;8.53;4.83;;;15.90;55.70;;;;;;4976589;28;20527;-77
2021/04/26 12:56:14;;;;;;;5.03;4.00;;;16.00;55.80;;;;;;4975461;28;20469;-81
2021/04/26 12:58:42;;;;;;;5.00;4.50;;;15.90;56.10;;;;;;4972994;28;20489;-79
2021/04/26 13:01:20;;;;;;;5.13;3.97;;;15.90;54.80;;;;;;4978575;28;21082;-78
2021/04/26 13:03:56;;;;;;;10.43;4.43;;;15.90;55.50;;;;;;4969907;28;20534;-79